Terminal Aerodrome Forecast
Issued by NWS

Current Version | Previous Version | Text Only | Print | Product List | Glossary On
Versions: 1 2 3 4 5 6 7 8 9 10 11 12 13 14 15 16 17 18 19 20 21 22 23 24
000
FTUS43 KDDC 231120
TAFHYS
TAF
KHYS 231120Z 2312/2412 24004KT P6SM SKC
     FM231400 22008KT P6SM SKC
     FM231600 20012KT P6SM SKC
     FM231900 19017G25KT P6SM SKC
     FM240500 17015G23KT P6SM FEW250 WS013/18030KT
     FM240600 17015KT P6SM FEW250 WS020/18045KT=

USA.gov is the U.S. government's official web portal to all federal, state and local government web resources and services.